Time;durP1;ratioP1;P1;durP2;ratioP2;P2;SDS_P1;SDS_P2;PMS_P1;PMS_P2;Temp;Humidity;BMP_temperature;BMP_pressure;BME280_temperature;BME280_humidity;BME280_pressure;Samples;Min_cycle;Max_cycle;Signal;HPM_P1;HPM_P2
2021/06/22 00:01:51;;;;;;;6.20;5.60;;;23.50;99.90;;;;;;5013306;28;20454;-82
2021/06/22 00:04:17;;;;;;;6.47;5.83;;;23.40;99.90;;;;;;5013307;28;20500;-84
2021/06/22 00:06:45;;;;;;;6.03;5.50;;;23.40;99.90;;;;;;5013347;28;20937;-84
2021/06/22 00:09:12;;;;;;;6.17;5.57;;;23.40;99.90;;;;;;5013475;28;20490;-85
2021/06/22 00:11:39;;;;;;;6.80;5.03;;;23.30;99.90;;;;;;5007318;28;20489;-84
2021/06/22 00:14:06;;;;;;;6.63;6.03;;;23.20;99.90;;;;;;4993746;28;20522;-84
2021/06/22 00:16:33;;;;;;;6.20;5.60;;;23.10;99.90;;;;;;4993499;28;20506;-85
2021/06/22 00:19:00;;;;;;;6.80;5.27;;;23.10;99.90;;;;;;4993600;28;20451;-85
2021/06/22 00:21:26;;;;;;;6.47;5.90;;;23.10;99.90;;;;;;4993449;28;20497;-84
2021/06/22 00:23:54;;;;;;;7.53;6.10;;;23.00;99.90;;;;;;4993497;28;20478;-83
2021/06/22 00:26:21;;;;;;;6.03;5.57;;;23.00;99.90;;;;;;4993593;28;20506;-83
2021/06/22 00:28:48;;;;;;;7.50;6.80;;;22.90;99.90;;;;;;4993459;28;20479;-84
2021/06/22 00:31:17;;;;;;;7.70;6.70;;;22.90;99.90;;;;;;4993587;28;20478;-82
2021/06/22 00:33:43;;;;;;;6.80;6.20;;;22.80;99.90;;;;;;4993405;28;20478;-83
2021/06/22 00:36:10;;;;;;;13.37;6.00;;;22.80;99.90;;;;;;4993353;28;20514;-84
2021/06/22 00:38:37;;;;;;;6.00;5.40;;;22.80;99.90;;;;;;4993473;28;20857;-84
2021/06/22 00:41:05;;;;;;;9.07;7.53;;;22.70;99.90;;;;;;4993315;28;20455;-84
2021/06/22 00:43:32;;;;;;;7.00;6.40;;;22.80;99.90;;;;;;4993133;28;20471;-84
2021/06/22 00:45:58;;;;;;;8.90;6.73;;;22.80;99.90;;;;;;4993173;28;20482;-84
2021/06/22 00:48:25;;;;;;;7.23;6.40;;;22.70;99.90;;;;;;4993169;28;20541;-85
2021/06/22 00:50:51;;;;;;;8.00;6.93;;;22.80;99.90;;;;;;4993317;28;20455;-85
2021/06/22 00:53:18;;;;;;;12.37;7.97;;;22.80;99.90;;;;;;4993370;28;20822;-84
2021/06/22 00:55:44;;;;;;;8.03;7.43;;;22.80;99.90;;;;;;4993198;28;20479;-83
2021/06/22 00:58:12;;;;;;;7.87;7.17;;;22.90;99.90;;;;;;4993216;28;20815;-83
2021/06/22 01:00:39;;;;;;;8.80;7.90;;;22.90;99.90;;;;;;4992996;28;20491;-85
2021/06/22 01:03:06;;;;;;;8.10;7.30;;;23.00;99.90;;;;;;4992945;28;20537;-86
2021/06/22 01:05:33;;;;;;;8.13;7.40;;;23.00;99.90;;;;;;4993030;28;20517;-86
2021/06/22 01:08:01;;;;;;;9.70;7.50;;;23.00;99.90;;;;;;4993228;28;20490;-85
2021/06/22 01:10:28;;;;;;;8.80;7.90;;;22.90;99.90;;;;;;4995991;28;20486;-84
2021/06/22 01:12:55;;;;;;;8.40;7.80;;;22.90;99.90;;;;;;5013195;28;20508;-85
2021/06/22 01:15:25;;;;;;;10.80;7.30;;;22.80;99.90;;;;;;5016066;28;20497;-84
2021/06/22 01:17:56;;;;;;;7.60;6.90;;;22.80;99.90;;;;;;5016212;28;20517;-88
2021/06/22 01:20:29;;;;;;;10.60;9.60;;;22.70;99.90;;;;;;5016784;28;20878;-92
2021/06/22 01:22:58;;;;;;;9.30;8.30;;;22.70;99.90;;;;;;5016519;28;20480;-92
2021/06/22 01:25:25;;;;;;;9.13;7.70;;;22.70;99.90;;;;;;5016074;28;20458;-91
2021/06/22 01:27:52;;;;;;;7.57;6.80;;;22.70;99.90;;;;;;5016540;28;20481;-92
2021/06/22 01:30:19;;;;;;;9.00;6.77;;;22.70;99.90;;;;;;5016879;28;20462;-93
2021/06/22 01:32:46;;;;;;;7.07;6.20;;;22.80;99.90;;;;;;5016447;28;20513;-92
2021/06/22 01:35:13;;;;;;;13.53;7.40;;;22.80;99.90;;;;;;5016618;28;20613;-93
2021/06/22 01:37:50;;;;;;;7.60;6.97;;;22.80;99.90;;;;;;5016235;28;20484;-91
2021/06/22 01:40:18;;;;;;;9.13;7.67;;;22.80;99.90;;;;;;5015904;28;20505;-93
2021/06/22 01:42:45;;;;;;;10.80;7.80;;;22.70;99.90;;;;;;5016012;28;20478;-91
2021/06/22 01:45:12;;;;;;;8.77;7.87;;;22.70;99.90;;;;;;5015648;28;20565;-92
2021/06/22 01:47:40;;;;;;;7.90;7.17;;;22.60;99.90;;;;;;5015107;28;20512;-92
2021/06/22 01:50:07;;;;;;;9.40;7.07;;;22.50;99.90;;;;;;5015767;28;20489;-92
2021/06/22 01:52:34;;;;;;;8.30;7.60;;;22.40;99.90;;;;;;5013679;28;20957;-92
2021/06/22 01:55:34;;;;;;;11.10;7.97;;;22.40;99.90;;;;;;5016154;28;20550;-92
2021/06/22 01:57:49;;;;;;;9.40;8.53;;;22.30;99.90;;;;;;5015627;28;20783;-92
2021/06/22 02:00:17;;;;;;;8.97;8.10;;;22.40;99.90;;;;;;5015686;28;20512;-92
2021/06/22 02:02:44;;;;;;;8.90;7.20;;;22.40;99.90;;;;;;5015897;28;20454;-90
2021/06/22 02:05:12;;;;;;;8.67;8.00;;;22.40;99.90;;;;;;5015138;28;20478;-88
2021/06/22 02:07:38;;;;;;;8.57;7.77;;;22.30;99.90;;;;;;5015600;28;20840;-88
2021/06/22 02:10:06;;;;;;;9.33;8.43;;;22.30;99.90;;;;;;5015238;28;21029;-88
2021/06/22 02:12:32;;;;;;;8.37;7.87;;;22.20;99.90;;;;;;5015332;28;20489;-88
2021/06/22 02:15:00;;;;;;;10.30;9.20;;;22.20;99.90;;;;;;5015232;28;20458;-90
2021/06/22 02:17:27;;;;;;;13.03;8.77;;;22.20;99.90;;;;;;5015218;28;20520;-91
2021/06/22 02:19:54;;;;;;;11.20;9.27;;;22.10;99.90;;;;;;5015781;28;20455;-89
2021/06/22 02:22:20;;;;;;;10.20;9.17;;;22.10;99.90;;;;;;5015022;28;20473;-90
2021/06/22 02:24:47;;;;;;;9.40;8.57;;;22.10;99.90;;;;;;5014777;28;21053;-89
2021/06/22 02:27:22;;;;;;;8.97;8.27;;;22.10;99.90;;;;;;5008846;28;20996;-91
2021/06/22 02:29:49;;;;;;;8.67;7.90;;;22.00;99.90;;;;;;5000957;28;20455;-91
2021/06/22 02:32:17;;;;;;;9.80;8.90;;;22.00;99.90;;;;;;5006281;28;20872;-90
2021/06/22 02:34:43;;;;;;;9.50;8.37;;;22.00;99.90;;;;;;5014985;28;20526;-91
2021/06/22 02:37:10;;;;;;;9.07;8.17;;;22.00;99.90;;;;;;5015445;28;20460;-90
2021/06/22 02:39:36;;;;;;;8.87;7.60;;;22.00;99.90;;;;;;5015441;28;20494;-87
2021/06/22 02:42:04;;;;;;;10.50;8.77;;;22.00;99.90;;;;;;5018995;28;20528;-93
2021/06/22 02:44:30;;;;;;;8.13;7.20;;;22.00;99.90;;;;;;5016706;28;20989;-91
2021/06/22 02:46:57;;;;;;;8.50;7.40;;;22.10;99.90;;;;;;5015823;28;20458;-94
2021/06/22 02:49:25;;;;;;;10.67;8.20;;;22.10;99.90;;;;;;5000630;28;20447;-93
2021/06/22 02:51:53;;;;;;;7.77;7.17;;;22.10;99.90;;;;;;5012852;28;20494;-93
2021/06/22 02:54:20;;;;;;;7.97;7.17;;;22.20;99.90;;;;;;4997859;28;20501;-94
2021/06/22 02:56:46;;;;;;;8.00;7.20;;;22.30;99.90;;;;;;4996437;28;20814;-90
2021/06/22 02:59:13;;;;;;;7.93;7.23;;;22.30;99.90;;;;;;4995037;28;20543;-89
2021/06/22 03:01:39;;;;;;;7.93;7.20;;;22.20;99.90;;;;;;4995466;28;20478;-93
2021/06/22 03:04:06;;;;;;;7.20;6.60;;;22.20;99.90;;;;;;4995470;28;20578;-90
2021/06/22 03:06:34;;;;;;;8.53;7.37;;;22.20;99.90;;;;;;5012238;28;20459;-93
2021/06/22 03:09:01;;;;;;;8.37;6.90;;;22.20;99.90;;;;;;5014616;28;20463;-92
2021/06/22 03:11:27;;;;;;;8.13;7.53;;;22.10;99.90;;;;;;5013748;28;20458;-92
2021/06/22 03:13:54;;;;;;;8.47;7.77;;;22.20;99.90;;;;;;5013976;28;20493;-94
2021/06/22 03:16:20;;;;;;;9.53;8.63;;;22.20;99.90;;;;;;5013626;28;20501;-92
2021/06/22 03:18:47;;;;;;;8.97;8.10;;;22.10;99.90;;;;;;5013765;28;20490;-90
2021/06/22 03:21:17;;;;;;;9.47;8.57;;;22.00;99.90;;;;;;5014268;28;20485;-91
2021/06/22 03:23:45;;;;;;;9.80;8.80;;;21.90;99.90;;;;;;5014274;28;20527;-86
2021/06/22 03:26:12;;;;;;;10.93;10.03;;;21.80;99.90;;;;;;5012811;28;20450;-90
2021/06/22 03:28:39;;;;;;;10.33;9.50;;;21.80;99.90;;;;;;5013697;28;20454;-89
2021/06/22 03:31:06;;;;;;;10.33;9.40;;;21.70;99.90;;;;;;5013607;28;20537;-90
2021/06/22 03:33:33;;;;;;;10.30;9.30;;;21.70;99.90;;;;;;5013738;28;20450;-90
2021/06/22 03:35:59;;;;;;;13.00;8.43;;;21.70;99.90;;;;;;5014177;28;20489;-90
2021/06/22 03:38:26;;;;;;;9.17;8.27;;;21.70;99.90;;;;;;5013471;28;20447;-90
2021/06/22 03:40:54;;;;;;;10.40;8.90;;;21.80;99.90;;;;;;5013514;28;20454;-89
2021/06/22 03:43:22;;;;;;;9.47;8.50;;;21.80;99.90;;;;;;5013811;28;20452;-90
2021/06/22 03:45:48;;;;;;;8.90;8.20;;;21.90;99.90;;;;;;4995865;28;20487;-90
2021/06/22 03:48:15;;;;;;;9.13;7.57;;;21.90;99.90;;;;;;5013599;28;20447;-89
2021/06/22 03:50:42;;;;;;;10.10;7.33;;;22.00;99.90;;;;;;5013436;28;20509;-90
2021/06/22 03:53:09;;;;;;;8.47;7.60;;;22.00;99.90;;;;;;5013431;28;20500;-90
2021/06/22 03:55:35;;;;;;;7.43;6.83;;;22.00;99.90;;;;;;5013465;28;20450;-90
2021/06/22 03:58:05;;;;;;;8.03;7.43;;;22.00;99.90;;;;;;5013569;28;20454;-90
2021/06/22 04:00:32;;;;;;;7.50;6.80;;;22.10;99.90;;;;;;5013412;28;20450;-89
2021/06/22 04:03:00;;;;;;;8.90;8.03;;;22.20;99.90;;;;;;5013439;28;20516;-90
2021/06/22 04:05:27;;;;;;;8.13;7.43;;;22.20;99.90;;;;;;5013194;28;20492;-90
2021/06/22 04:07:54;;;;;;;9.30;8.50;;;22.30;99.90;;;;;;5013209;28;20454;-89
2021/06/22 04:10:21;;;;;;;10.50;9.60;;;22.20;99.90;;;;;;5013187;28;20512;-89
2021/06/22 04:12:47;;;;;;;11.40;8.90;;;22.20;99.90;;;;;;4997637;28;20462;-90
2021/06/22 04:15:16;;;;;;;10.47;9.57;;;22.20;99.90;;;;;;4993659;28;20800;-89
2021/06/22 04:17:43;;;;;;;11.60;10.40;;;22.20;99.90;;;;;;4993456;28;21071;-90
2021/06/22 04:20:11;;;;;;;12.53;10.23;;;22.10;99.90;;;;;;4993668;28;20451;-90
2021/06/22 04:22:38;;;;;;;11.17;9.27;;;22.10;99.90;;;;;;4993577;28;20490;-90
2021/06/22 04:25:06;;;;;;;10.70;9.67;;;22.00;99.90;;;;;;4993521;28;20518;-89
2021/06/22 04:27:32;;;;;;;11.73;9.33;;;21.90;99.90;;;;;;4993407;28;20494;-90
2021/06/22 04:29:59;;;;;;;12.77;9.20;;;21.70;99.90;;;;;;4993556;28;20533;-89
2021/06/22 04:32:27;;;;;;;12.20;8.90;;;21.80;99.90;;;;;;4993879;28;20459;-89
2021/06/22 04:34:54;;;;;;;9.83;8.93;;;21.80;99.90;;;;;;4993569;28;20553;-89
2021/06/22 04:37:21;;;;;;;11.03;9.13;;;21.80;99.90;;;;;;4993409;28;20451;-89
2021/06/22 04:39:48;;;;;;;12.03;9.20;;;21.90;99.90;;;;;;4993460;28;20451;-90
2021/06/22 04:42:14;;;;;;;18.90;10.33;;;22.00;99.90;;;;;;4993448;28;20472;-90
2021/06/22 04:44:41;;;;;;;11.33;10.23;;;22.10;99.90;;;;;;4996769;28;20493;-89
2021/06/22 04:47:08;;;;;;;9.93;8.97;;;22.10;99.90;;;;;;4997266;28;20463;-89
2021/06/22 04:49:36;;;;;;;10.47;8.80;;;22.20;99.90;;;;;;4997317;28;20479;-89
2021/06/22 04:52:02;;;;;;;12.83;9.10;;;22.30;99.90;;;;;;4997460;28;20459;-90
2021/06/22 04:54:29;;;;;;;11.20;8.73;;;22.40;99.90;;;;;;4997325;28;20459;-89
2021/06/22 04:56:56;;;;;;;9.07;8.20;;;22.50;99.90;;;;;;4997192;28;20490;-89
2021/06/22 04:59:22;;;;;;;10.60;9.60;;;22.40;99.90;;;;;;4997414;28;20451;-90
2021/06/22 05:01:49;;;;;;;9.00;8.20;;;22.40;99.90;;;;;;4997225;28;20525;-90
2021/06/22 05:04:16;;;;;;;10.17;9.03;;;22.40;99.90;;;;;;4997201;28;20475;-90
2021/06/22 05:06:46;;;;;;;11.73;7.73;;;22.40;99.90;;;;;;4997069;28;20487;-90
2021/06/22 05:09:13;;;;;;;10.67;8.67;;;22.40;99.90;;;;;;4997570;28;20546;-90
2021/06/22 05:11:39;;;;;;;12.93;8.00;;;22.40;99.90;;;;;;5003519;28;20853;-90
2021/06/22 05:14:06;;;;;;;9.10;8.00;;;22.50;99.90;;;;;;5016840;28;20809;-90
2021/06/22 05:16:33;;;;;;;11.33;9.70;;;22.60;99.90;;;;;;5016250;28;20473;-90
2021/06/22 05:18:59;;;;;;;19.40;10.93;;;22.70;99.90;;;;;;5017076;28;20500;-90
2021/06/22 05:21:26;;;;;;;15.23;11.53;;;22.60;99.90;;;;;;5016890;28;20817;-90
2021/06/22 05:23:54;;;;;;;16.13;12.20;;;22.60;99.90;;;;;;5016662;28;20512;-90
2021/06/22 05:26:20;;;;;;;15.00;13.40;;;22.60;99.90;;;;;;5016625;28;20572;-90
2021/06/22 05:28:47;;;;;;;21.60;14.10;;;22.70;99.90;;;;;;5017013;28;20458;-89
2021/06/22 05:31:14;;;;;;;19.47;12.97;;;22.70;99.90;;;;;;5016722;28;20454;-90
2021/06/22 05:33:40;;;;;;;17.60;14.07;;;22.70;99.90;;;;;;5016892;28;20461;-90
2021/06/22 05:36:07;;;;;;;20.87;15.73;;;22.70;99.90;;;;;;5016257;28;20516;-90
2021/06/22 05:38:34;;;;;;;21.83;15.70;;;22.60;99.90;;;;;;5016624;28;20454;-90
2021/06/22 05:41:02;;;;;;;20.30;17.30;;;22.50;99.90;;;;;;5016048;28;20508;-90
2021/06/22 05:43:28;;;;;;;36.50;20.03;;;22.40;99.90;;;;;;5016357;28;20507;-90
2021/06/22 05:45:55;;;;;;;27.13;18.87;;;22.40;99.90;;;;;;5016106;28;20486;-90
2021/06/22 05:48:22;;;;;;;25.63;16.40;;;22.30;99.90;;;;;;5016129;28;20454;-90
2021/06/22 05:50:48;;;;;;;23.53;16.90;;;22.20;99.90;;;;;;5016365;28;20462;-91
2021/06/22 05:53:15;;;;;;;26.57;18.17;;;22.10;99.90;;;;;;5016517;28;20512;-90
2021/06/22 05:55:41;;;;;;;20.37;16.30;;;22.10;99.90;;;;;;5015756;28;20450;-90
2021/06/22 05:58:10;;;;;;;33.63;17.57;;;21.90;99.90;;;;;;5016454;28;20520;-90
2021/06/22 06:00:36;;;;;;;21.13;16.13;;;21.80;99.90;;;;;;5016068;28;20453;-90
2021/06/22 06:03:04;;;;;;;25.13;15.97;;;21.70;99.90;;;;;;5016389;28;20460;-89
2021/06/22 06:05:30;;;;;;;18.17;14.90;;;21.70;99.90;;;;;;5015451;28;20840;-90
2021/06/22 06:07:57;;;;;;;17.27;13.90;;;21.80;99.90;;;;;;5015741;28;20458;-90
2021/06/22 06:10:24;;;;;;;19.47;14.47;;;21.70;99.90;;;;;;5015619;28;20528;-90
2021/06/22 06:12:51;;;;;;;16.37;14.20;;;21.70;99.90;;;;;;5000045;28;20455;-90
2021/06/22 06:15:20;;;;;;;18.70;13.17;;;21.70;99.90;;;;;;4996209;28;20484;-90
2021/06/22 06:17:47;;;;;;;18.80;13.70;;;21.60;99.90;;;;;;4995560;28;20479;-90
2021/06/22 06:20:14;;;;;;;18.73;15.23;;;21.60;99.90;;;;;;4995636;28;20486;-90
2021/06/22 06:22:43;;;;;;;16.23;14.60;;;21.60;99.90;;;;;;4996257;28;20485;-90
2021/06/22 06:25:12;;;;;;;16.97;13.70;;;21.60;99.90;;;;;;4995780;28;20487;-90
2021/06/22 06:27:45;;;;;;;17.13;14.60;;;21.50;99.90;;;;;;4995784;28;20461;-90
2021/06/22 06:30:15;;;;;;;18.60;15.60;;;21.50;99.90;;;;;;4996289;28;20455;-90
2021/06/22 06:32:43;;;;;;;17.43;14.03;;;21.50;99.90;;;;;;4996285;28;20495;-90
2021/06/22 06:35:11;;;;;;;16.20;14.40;;;21.50;99.90;;;;;;4996107;28;20459;-90
2021/06/22 06:37:38;;;;;;;17.93;14.90;;;21.60;99.90;;;;;;4995884;28;20465;-90
2021/06/22 06:40:06;;;;;;;18.50;13.57;;;21.60;99.90;;;;;;4995678;28;20482;-91
2021/06/22 06:42:33;;;;;;;15.20;13.60;;;21.70;99.90;;;;;;4995840;28;20590;-90
2021/06/22 06:44:59;;;;;;;15.50;14.00;;;21.70;99.90;;;;;;4996235;28;20510;-91
2021/06/22 06:47:26;;;;;;;14.20;12.77;;;21.70;99.90;;;;;;4995400;28;20558;-89
2021/06/22 06:49:54;;;;;;;13.93;12.50;;;21.80;99.90;;;;;;4995582;28;20897;-91
2021/06/22 06:52:21;;;;;;;12.77;11.47;;;21.80;99.90;;;;;;4995698;28;20433;-90
2021/06/22 06:54:47;;;;;;;10.97;10.03;;;21.80;99.90;;;;;;4995522;28;20447;-90
2021/06/22 06:57:14;;;;;;;13.47;10.20;;;21.90;99.90;;;;;;4995705;28;20478;-90
2021/06/22 06:59:40;;;;;;;13.40;12.03;;;22.00;99.90;;;;;;4995791;28;20450;-90
2021/06/22 07:02:08;;;;;;;15.47;11.30;;;22.10;99.90;;;;;;4995208;28;20775;-90
2021/06/22 07:04:37;;;;;;;11.13;9.63;;;22.30;99.90;;;;;;4995362;28;20486;-90
2021/06/22 07:07:06;;;;;;;14.60;13.17;;;22.50;99.90;;;;;;4993993;28;20463;-90
2021/06/22 07:09:32;;;;;;;13.63;12.30;;;22.60;99.90;;;;;;4994937;28;20479;-90
2021/06/22 07:11:59;;;;;;;11.47;10.47;;;22.70;99.90;;;;;;5003784;28;20473;-89
2021/06/22 07:14:25;;;;;;;9.53;8.63;;;22.70;99.90;;;;;;5014733;28;20455;-90
2021/06/22 07:16:52;;;;;;;9.00;7.87;;;22.80;99.90;;;;;;5014727;28;20819;-90
2021/06/22 07:19:19;;;;;;;9.90;6.77;;;22.80;99.90;;;;;;5014345;28;20504;-90
2021/06/22 07:21:46;;;;;;;6.57;5.83;;;22.90;99.90;;;;;;5014271;28;20489;-90
2021/06/22 07:24:14;;;;;;;6.67;6.07;;;22.90;99.90;;;;;;5014667;28;20461;-90
2021/06/22 07:26:41;;;;;;;6.07;5.00;;;22.70;99.90;;;;;;5013982;28;20478;-91
2021/06/22 07:29:08;;;;;;;5.40;4.90;;;22.70;99.90;;;;;;5014440;28;20516;-90
2021/06/22 07:31:35;;;;;;;8.03;6.50;;;22.80;99.90;;;;;;5014622;28;20500;-90
2021/06/22 07:34:02;;;;;;;6.60;5.93;;;22.80;99.90;;;;;;5014618;28;20787;-91
2021/06/22 07:36:28;;;;;;;6.70;6.10;;;22.60;99.90;;;;;;5014524;28;20525;-89
2021/06/22 07:38:55;;;;;;;5.93;5.43;;;22.90;99.90;;;;;;5014086;28;20508;-91
2021/06/22 07:41:23;;;;;;;7.60;4.90;;;23.00;99.90;;;;;;5014560;28;20458;-90
2021/06/22 07:43:50;;;;;;;5.93;5.00;;;23.00;99.90;;;;;;5014161;28;20450;-91
2021/06/22 07:46:17;;;;;;;6.60;5.17;;;23.00;99.90;;;;;;5013567;28;20536;-92
2021/06/22 07:48:43;;;;;;;6.63;4.97;;;23.00;99.90;;;;;;5013724;28;20481;-93
2021/06/22 07:51:10;;;;;;;7.50;4.80;;;23.00;99.90;;;;;;5013547;28;21067;-93
2021/06/22 07:53:37;;;;;;;5.00;4.47;;;23.00;99.90;;;;;;5013415;28;20972;-92
2021/06/22 07:56:04;;;;;;;4.47;4.03;;;23.10;99.90;;;;;;5013472;28;20454;-91
2021/06/22 07:58:32;;;;;;;3.90;3.60;;;22.90;99.90;;;;;;5013466;28;20516;-92
2021/06/22 08:00:59;;;;;;;4.43;3.40;;;22.70;99.90;;;;;;5013657;28;20450;-92
2021/06/22 08:03:27;;;;;;;4.03;3.63;;;22.40;99.90;;;;;;5013560;28;20478;-91
2021/06/22 08:05:54;;;;;;;5.23;4.77;;;22.40;99.90;;;;;;5013867;28;21019;-92
2021/06/22 08:08:22;;;;;;;4.30;3.90;;;22.30;99.90;;;;;;5013462;28;20458;-92
2021/06/22 08:10:52;;;;;;;6.40;3.40;;;22.20;99.90;;;;;;5013633;28;20481;-92
2021/06/22 08:13:20;;;;;;;3.63;3.33;;;22.10;99.90;;;;;;4993836;28;20451;-92
2021/06/22 08:15:49;;;;;;;3.57;3.27;;;22.10;99.90;;;;;;4993685;28;20455;-89
2021/06/22 08:18:15;;;;;;;3.70;3.47;;;22.00;99.90;;;;;;4993108;28;21006;-90
2021/06/22 08:20:42;;;;;;;4.57;3.80;;;21.90;99.90;;;;;;4994040;28;20502;-91
2021/06/22 08:23:09;;;;;;;3.97;3.60;;;21.70;99.90;;;;;;4993701;28;20505;-90
2021/06/22 08:25:36;;;;;;;3.97;3.67;;;21.70;99.90;;;;;;4994237;28;20474;-91
2021/06/22 08:28:04;;;;;;;9.23;4.83;;;21.50;99.90;;;;;;4994320;28;20443;-91
2021/06/22 08:30:32;;;;;;;15.27;4.73;;;21.20;99.90;;;;;;4993709;28;20455;-91
2021/06/22 08:33:02;;;;;;;8.20;5.00;;;21.00;99.90;;;;;;4994189;28;20985;-91
2021/06/22 08:35:31;;;;;;;5.20;4.40;;;20.90;99.90;;;;;;4993691;28;20466;-91
2021/06/22 08:37:58;;;;;;;7.63;4.67;;;20.70;99.90;;;;;;4993782;28;20455;-91
2021/06/22 08:40:25;;;;;;;5.87;5.17;;;20.70;99.90;;;;;;4994098;28;20463;-90
2021/06/22 08:42:52;;;;;;;5.23;4.80;;;20.50;99.90;;;;;;4993412;28;20455;-91
2021/06/22 08:45:19;;;;;;;5.60;5.10;;;20.40;99.90;;;;;;4993154;28;20803;-91
2021/06/22 08:47:47;;;;;;;4.87;4.43;;;20.10;99.90;;;;;;4993678;28;20542;-91
2021/06/22 08:50:16;;;;;;;5.47;4.97;;;20.10;99.90;;;;;;4993766;28;20455;-91
2021/06/22 08:52:44;;;;;;;4.67;4.20;;;20.10;99.90;;;;;;4993684;28;21001;-91
2021/06/22 08:55:25;;;;;;;4.07;3.63;;;20.00;99.90;;;;;;4993557;28;20455;-89
2021/06/22 08:57:53;;;;;;;4.03;3.77;;;19.90;99.90;;;;;;4993167;28;20482;-91
2021/06/22 09:00:20;;;;;;;5.50;3.90;;;19.80;99.90;;;;;;4993347;28;20452;-90
2021/06/22 09:02:56;;;;;;;4.73;3.93;;;19.90;99.90;;;;;;4993206;28;20974;-91
2021/06/22 09:05:27;;;;;;;6.60;4.13;;;20.00;99.90;;;;;;4993166;28;20458;-90
2021/06/22 09:07:54;;;;;;;3.80;3.60;;;20.10;99.90;;;;;;4993675;28;20462;-90
2021/06/22 09:10:26;;;;;;;4.20;3.83;;;20.40;99.90;;;;;;4993033;28;20457;-86
2021/06/22 09:12:54;;;;;;;6.40;4.30;;;20.50;99.90;;;;;;5009037;28;20461;-83
2021/06/22 09:15:24;;;;;;;4.10;3.70;;;20.70;99.90;;;;;;5012603;28;20466;-84
2021/06/22 09:17:52;;;;;;;4.97;4.57;;;20.90;99.90;;;;;;5012056;28;20532;-87
2021/06/22 09:20:35;;;;;;;5.33;4.90;;;21.10;99.90;;;;;;5012481;28;20478;-87
2021/06/22 09:23:21;;;;;;;6.50;4.27;;;21.40;99.90;;;;;;5012725;28;20504;-87
2021/06/22 09:25:49;;;;;;;4.20;3.80;;;21.40;99.90;;;;;;5007949;28;20478;-85
2021/06/22 09:28:17;;;;;;;6.87;4.60;;;21.40;99.90;;;;;;4999423;28;20493;-86
2021/06/22 09:30:50;;;;;;;4.97;4.30;;;21.40;99.90;;;;;;4994699;28;20490;-87
2021/06/22 09:33:22;;;;;;;5.63;3.97;;;21.50;99.90;;;;;;5014277;28;20450;-87
2021/06/22 09:35:57;;;;;;;3.90;3.50;;;21.40;99.90;;;;;;5004954;28;20466;-87
2021/06/22 09:38:27;;;;;;;4.23;3.93;;;21.40;99.90;;;;;;5015991;28;20527;-87
2021/06/22 09:41:18;;;;;;;4.47;4.07;;;21.40;99.90;;;;;;5015554;28;20737;-87
2021/06/22 09:43:47;;;;;;;8.30;4.50;;;21.30;99.90;;;;;;5013160;28;20446;-87
2021/06/22 09:46:16;;;;;;;4.13;3.83;;;21.00;99.90;;;;;;5015816;28;20470;-87
2021/06/22 09:48:46;;;;;;;3.90;3.60;;;21.00;99.90;;;;;;5015352;28;20550;-87
2021/06/22 09:51:14;;;;;;;3.93;3.63;;;21.10;99.90;;;;;;5015724;28;20453;-87
2021/06/22 09:53:41;;;;;;;4.10;3.70;;;21.20;99.90;;;;;;5015531;28;20457;-87
2021/06/22 09:56:19;;;;;;;6.33;4.27;;;21.20;99.90;;;;;;5015419;28;20461;-87
2021/06/22 09:58:46;;;;;;;3.80;3.60;;;21.30;99.90;;;;;;5015874;28;20504;-87
2021/06/22 10:01:30;;;;;;;3.47;3.27;;;21.30;99.90;;;;;;5015620;28;20481;-87
2021/06/22 10:04:12;;;;;;;5.97;3.70;;;21.40;99.90;;;;;;5015385;28;20450;-86
2021/06/22 10:06:41;;;;;;;4.80;4.07;;;21.50;99.90;;;;;;5015457;28;20810;-88
2021/06/22 10:09:08;;;;;;;3.80;3.60;;;21.60;99.90;;;;;;5015455;28;20488;-87
2021/06/22 10:11:36;;;;;;;4.13;3.83;;;21.70;99.90;;;;;;5015427;28;20451;-87
2021/06/22 10:14:04;;;;;;;4.27;3.87;;;21.70;99.90;;;;;;5015349;28;20548;-86
2021/06/22 10:16:33;;;;;;;4.00;3.60;;;21.60;99.90;;;;;;5000415;28;20490;-88
2021/06/22 10:19:01;;;;;;;6.37;3.50;;;21.40;99.90;;;;;;4985382;28;20462;-88
2021/06/22 10:21:29;;;;;;;4.20;3.90;;;21.30;99.90;;;;;;4979648;28;20507;-88
2021/06/22 10:23:57;;;;;;;5.23;3.53;;;21.10;99.90;;;;;;4991801;28;20485;-86
2021/06/22 10:26:27;;;;;;;3.80;3.60;;;21.10;99.90;;;;;;4991405;28;20470;-87
2021/06/22 10:28:54;;;;;;;4.60;4.23;;;21.20;99.90;;;;;;4983389;28;20523;-88
2021/06/22 10:31:21;;;;;;;4.60;3.50;;;21.20;99.90;;;;;;4994944;28;20462;-88
2021/06/22 10:33:47;;;;;;;5.50;4.10;;;21.40;99.90;;;;;;4994869;28;20458;-88
2021/06/22 10:36:24;;;;;;;8.47;4.40;;;21.50;99.90;;;;;;4991246;28;20499;-88
2021/06/22 10:38:54;;;;;;;5.57;3.63;;;21.70;99.90;;;;;;4990499;28;20622;-88
2021/06/22 10:41:23;;;;;;;4.00;3.13;;;21.80;99.90;;;;;;4995001;28;20475;-88
2021/06/22 10:43:50;;;;;;;4.33;3.80;;;21.90;99.90;;;;;;4994684;28;20781;-88
2021/06/22 10:46:19;;;;;;;3.47;3.27;;;22.20;99.90;;;;;;4994486;28;20582;-87
2021/06/22 10:48:48;;;;;;;3.57;3.27;;;22.40;99.90;;;;;;4994697;28;20451;-87
2021/06/22 10:51:37;;;;;;;3.00;2.80;;;22.60;99.90;;;;;;4994634;28;20996;-88
2021/06/22 10:54:04;;;;;;;3.80;3.60;;;22.80;99.90;;;;;;4994487;28;20443;-89
2021/06/22 10:56:33;;;;;;;5.97;3.60;;;23.20;99.90;;;;;;4989788;28;20502;-88
2021/06/22 10:59:25;;;;;;;4.10;3.20;;;23.50;99.90;;;;;;4993912;28;20958;-88
2021/06/22 11:02:12;;;;;;;3.63;3.37;;;23.90;99.90;;;;;;4990286;28;20550;-87
2021/06/22 11:05:14;;;;;;;4.97;3.70;;;23.80;99.90;;;;;;4976977;28;20879;-86
2021/06/22 11:07:40;;;;;;;6.93;3.93;;;23.90;99.90;;;;;;4984861;28;20515;-85
2021/06/22 11:10:15;;;;;;;3.37;2.87;;;23.80;99.90;;;;;;4984665;28;20539;-84
2021/06/22 11:12:48;;;;;;;4.37;3.17;;;23.70;99.90;;;;;;4986815;28;20446;-84
2021/06/22 11:15:15;;;;;;;3.57;3.27;;;23.40;99.90;;;;;;4981761;28;20444;-84
2021/06/22 11:18:00;;;;;;;6.27;4.10;;;23.10;99.90;;;;;;4984192;28;20476;-85
2021/06/22 11:20:31;;;;;;;3.83;3.53;;;22.80;99.90;;;;;;4984026;28;20448;-85
2021/06/22 11:23:03;;;;;;;3.77;3.47;;;22.60;99.90;;;;;;4986726;28;20537;-85
2021/06/22 11:26:03;;;;;;;5.17;4.00;;;22.60;99.90;;;;;;4984395;28;20448;-85
2021/06/22 11:28:53;;;;;;;4.77;4.30;;;22.60;99.90;;;;;;4984286;28;20459;-85
2021/06/22 11:31:34;;;;;;;4.07;3.27;;;22.30;99.90;;;;;;4980606;28;20499;-85
2021/06/22 11:34:05;;;;;;;3.90;3.50;;;22.20;99.90;;;;;;4990642;28;20509;-85
2021/06/22 11:36:34;;;;;;;3.77;3.47;;;22.10;99.90;;;;;;4979483;28;20486;-84
2021/06/22 11:39:16;;;;;;;5.70;3.67;;;22.00;99.90;;;;;;4985210;28;20452;-84
2021/06/22 11:41:58;;;;;;;6.67;3.70;;;22.10;99.90;;;;;;4988607;28;20458;-84
2021/06/22 11:44:28;;;;;;;5.23;3.97;;;22.30;99.90;;;;;;4977907;28;20501;-84
2021/06/22 11:46:55;;;;;;;5.87;5.47;;;22.40;99.90;;;;;;4985725;28;20476;-85
2021/06/22 11:49:38;;;;;;;4.00;3.60;;;22.70;99.90;;;;;;4985533;28;20960;-85
2021/06/22 11:52:07;;;;;;;3.23;2.97;;;23.20;99.90;;;;;;4977808;28;20542;-85
2021/06/22 11:55:00;;;;;;;3.27;2.90;;;23.50;99.90;;;;;;4988376;28;20486;-85
2021/06/22 11:57:29;;;;;;;5.07;3.40;;;23.80;99.90;;;;;;4986555;28;20452;-86
2021/06/22 11:59:59;;;;;;;3.13;2.83;;;23.80;99.90;;;;;;4978071;28;20448;-85
2021/06/22 12:02:26;;;;;;;3.27;3.07;;;24.00;99.90;;;;;;4978417;28;20982;-85
2021/06/22 12:04:52;;;;;;;4.37;3.93;;;24.20;99.90;;;;;;4985812;28;20452;-85
2021/06/22 12:07:19;;;;;;;4.40;3.60;;;24.20;99.90;;;;;;4981812;28;20549;-85
2021/06/22 12:09:47;;;;;;;4.03;3.30;;;23.90;99.90;;;;;;4987569;28;20947;-84
2021/06/22 12:12:15;;;;;;;4.47;3.20;;;23.40;99.90;;;;;;4990574;28;20531;-85
2021/06/22 12:14:46;;;;;;;4.87;4.47;;;23.00;99.90;;;;;;4989886;28;20478;-86
2021/06/22 12:17:15;;;;;;;5.20;4.17;;;22.80;99.90;;;;;;4993043;28;20479;-86
2021/06/22 12:19:42;;;;;;;7.60;4.27;;;22.30;99.90;;;;;;4978873;28;20451;-86
2021/06/22 12:22:13;;;;;;;4.30;4.00;;;21.60;99.90;;;;;;4989827;28;20854;-86
2021/06/22 12:24:40;;;;;;;4.00;3.60;;;21.20;99.90;;;;;;4979566;28;20530;-85
2021/06/22 12:27:08;;;;;;;4.73;3.87;;;21.00;99.90;;;;;;4983527;28;20483;-85
2021/06/22 12:29:35;;;;;;;4.20;3.80;;;20.80;99.90;;;;;;4986857;28;20777;-85
2021/06/22 12:32:03;;;;;;;4.37;3.97;;;20.70;99.90;;;;;;4976804;28;20456;-85
2021/06/22 12:34:32;;;;;;;4.40;4.10;;;20.70;99.90;;;;;;4988290;28;20453;-84
2021/06/22 12:36:59;;;;;;;6.60;4.43;;;20.80;99.90;;;;;;4982251;28;20459;-92
2021/06/22 12:39:35;;;;;;;4.63;4.10;;;20.90;99.90;;;;;;4993450;28;20454;-92
2021/06/22 12:42:07;;;;;;;4.40;4.00;;;21.00;99.90;;;;;;4993552;28;20532;-92
2021/06/22 12:44:34;;;;;;;5.93;3.80;;;21.10;99.90;;;;;;4988360;28;20444;-91
2021/06/22 12:47:04;;;;;;;4.63;4.23;;;21.30;99.90;;;;;;4982007;28;20478;-90
2021/06/22 12:49:34;;;;;;;4.50;4.10;;;21.80;99.90;;;;;;4980419;28;20452;-92
2021/06/22 12:52:03;;;;;;;4.00;3.57;;;22.40;99.90;;;;;;4990229;28;20455;-91